CheckWX is a tool to help pilots better visualize weather data.  It is not intended as a substitute for an official pre-flight weather briefing.

07:00:36 UTC

21D METAR
Lake Elmo Airport
St Paul, Minnesota, USA
Current

6 mins ago

K21D 210655Z AUTO 16006KT 10SM CLR 23/20 A2992 RMK AO2
Observed
Sep-21 @ 06:55 UTC
Wind
  • 160° at 6 KTS
Visibility
10 SM
Flight Rules
VFR
Cloud Levels
  • Clear skies
Temperature
23°C / 73°F
Dewpoint
20°C / 68°F
Humidity
83%
Altimeter
29.92" Hg
Pressure
1013.22 hPa
Previous

26 mins ago

K21D 210635Z AUTO 17008KT 10SM CLR 23/20 A2992 RMK AO2
Observed
Sep-21 @ 06:35 UTC
Wind
  • 170° at 8 KTS
Visibility
10 SM
Flight Rules
VFR
Cloud Levels
  • Clear skies
Temperature
23°C / 73°F
Dewpoint
20°C / 68°F
Humidity
83%
Altimeter
29.92" Hg
Pressure
1013.22 hPa
Previous

45 mins ago

K21D 210616Z AUTO 17007KT 10SM CLR 23/20 A2992 RMK AO2
Observed
Sep-21 @ 06:16 UTC
Wind
  • 170° at 7 KTS
Visibility
10 SM
Flight Rules
VFR
Cloud Levels
  • Clear skies
Temperature
23°C / 73°F
Dewpoint
20°C / 68°F
Humidity
83%
Altimeter
29.92" Hg
Pressure
1013.22 hPa